Main page
METAR-TAF:

METAR-TAF

Airports :

Athens, Greece

Athens International Airport

latitude: 37-56N, longitude: 023-56E, elevation: 94 m

Current weather observation

The report was made 33 minutes ago, at 01:20 UTC
Wind 15 kt from the North/Northeast
Temperature 19°C
Humidity 60%
Pressure 1025 hPa
Visibility 10 km or more
Few clouds at a height of 3000 ft

METAR: LGAV 170120Z 02015KT 9999 FEW030 19/11 Q1025 NOSIG

Time: 04:53 (01:53 UTC)

Forecast

The report was made 2 hours and 53 minutes ago, at 23:00 UTC
Forecast valid from 17 at 00 UTC to 17 at 24 UTC
Wind 15 kt from the North/Northeast
Visibility 10 km or more
Few clouds at a height of 2500 ft

TAF: LGAV 162300Z 1700/1724 02015KT 9999 FEW025

Weather observations and forecasts of more than 4000 airports (METAR and TAF reports).

The available stations are represented by yellow and red dots on the map.

Hover mouse over dot to see the name of the station.

Then click to see weather observations and forecasts.

To change the map : click on the green buttons with a black cross to zoom in, on the green button with a dash to zoom out, or on the green arrows for adjacent maps.


METAR-TAF: